createdAt,value
2018-05-01T00:00:32.982Z,11.73
2018-05-01T00:01:07.436Z,11.78
2018-05-01T00:02:07.687Z,11.71
2018-05-01T00:03:05.830Z,11.71
2018-05-01T00:04:06.738Z,11.76
2018-05-01T00:05:07.299Z,11.67
2018-05-01T00:06:05.673Z,11.59
2018-05-01T00:07:07.012Z,11.6
2018-05-01T00:08:06.453Z,11.46
2018-05-01T00:09:07.607Z,11.46
2018-05-01T00:10:07.770Z,11.51
2018-05-01T00:11:07.130Z,11.48
2018-05-01T00:12:08.237Z,11.45
2018-05-01T00:13:07.832Z,11.46
2018-05-01T00:14:08.481Z,11.31
2018-05-01T00:15:07.654Z,11.38
2018-05-01T00:16:07.412Z,11.21
2018-05-01T00:17:08.626Z,11.26
2018-05-01T00:18:07.147Z,11.21
2018-05-01T00:19:07.696Z,11.1
2018-05-01T00:20:07.818Z,11.2
2018-05-01T00:21:07.704Z,11.15
2018-05-01T00:22:07.547Z,11.16
2018-05-01T00:23:07.736Z,11.2
2018-05-01T00:24:07.496Z,11.18
2018-05-01T00:25:07.917Z,11.2
2018-05-01T00:26:07.815Z,11.2
2018-05-01T00:27:08.098Z,11.28
2018-05-01T00:28:08.540Z,11.3
2018-05-01T00:29:08.591Z,11.26
2018-05-01T00:30:08.374Z,11.35
2018-05-01T00:31:08.631Z,11.33
2018-05-01T00:32:09.267Z,11.38
2018-05-01T00:33:09.032Z,11.53
2018-05-01T00:34:08.934Z,11.46
2018-05-01T00:35:09.893Z,11.6
2018-05-01T00:36:09.675Z,11.68
2018-05-01T00:37:10.429Z,11.68
2018-05-01T00:38:10.367Z,11.78
2018-05-01T00:39:10.409Z,11.79
2018-05-01T00:40:10.332Z,11.78
2018-05-01T00:41:10.749Z,11.94
2018-05-01T00:42:10.781Z,11.91
2018-05-01T00:43:11.187Z,11.89
2018-05-01T00:44:11.803Z,11.98
2018-05-01T00:45:11.451Z,12
2018-05-01T00:46:11.824Z,11.98
2018-05-01T00:47:11.608Z,11.86
2018-05-01T00:48:12.260Z,11.86
2018-05-01T00:49:12.347Z,11.78
2018-05-01T00:50:12.491Z,11.84
2018-05-01T00:51:12.886Z,11.82
2018-05-01T00:52:13.019Z,11.79
2018-05-01T00:53:12.422Z,11.78
2018-05-01T00:54:12.581Z,11.71
2018-05-01T00:55:13.118Z,11.66
2018-05-01T00:56:14.070Z,11.61
2018-05-01T00:57:13.184Z,11.57
2018-05-01T00:58:13.363Z,11.52
2018-05-01T00:59:13.506Z,11.53
2018-05-01T01:00:13.665Z,11.43
2018-05-01T01:01:13.964Z,11.41
2018-05-01T01:02:13.927Z,11.39
2018-05-01T01:03:14.748Z,11.28
2018-05-01T01:04:14.965Z,11.35
2018-05-01T01:05:15.456Z,11.39
2018-05-01T01:06:15.631Z,11.38
2018-05-01T01:07:15.827Z,11.27
2018-05-01T01:08:15.848Z,11.34
2018-05-01T01:09:15.627Z,11.31
2018-05-01T01:10:15.914Z,11.27
2018-05-01T01:11:16.056Z,11.2
2018-05-01T01:12:16.273Z,11.3
2018-05-01T01:13:17.070Z,11.28
2018-05-01T01:14:16.708Z,11.28
2018-05-01T01:15:16.447Z,11.2
2018-05-01T01:16:16.751Z,11.18
2018-05-01T01:17:16.580Z,11.16
2018-05-01T01:18:16.876Z,11.16
2018-05-01T01:19:17.175Z,11.2
2018-05-01T01:20:17.536Z,11.23
2018-05-01T01:21:17.985Z,11.18
2018-05-01T01:22:17.689Z,11.24
2018-05-01T01:23:18.034Z,11.31
2018-05-01T01:24:17.511Z,11.35
2018-05-01T01:25:19.756Z,11.34
2018-05-01T01:26:19.308Z,11.52
2018-05-01T01:27:19.069Z,11.51
2018-05-01T01:28:18.516Z,11.46
2018-05-01T01:29:19.009Z,11.6
2018-05-01T01:30:19.362Z,11.59
2018-05-01T01:31:19.300Z,11.64
2018-05-01T01:32:19.064Z,11.59
2018-05-01T01:33:19.626Z,11.64
2018-05-01T01:34:19.977Z,11.68
2018-05-01T01:35:19.971Z,11.6
2018-05-01T01:36:20.032Z,11.56
2018-05-01T01:37:20.340Z,11.6
2018-05-01T01:38:20.444Z,11.66
2018-05-01T01:39:20.441Z,11.67
2018-05-01T01:40:21.697Z,11.63
2018-05-01T01:41:20.157Z,11.63
2018-05-01T01:42:20.439Z,11.63
2018-05-01T01:43:20.558Z,11.71
2018-05-01T01:44:20.323Z,11.76
2018-05-01T01:45:20.332Z,11.73
2018-05-01T01:46:20.689Z,11.71
2018-05-01T01:47:20.870Z,11.7
2018-05-01T01:48:20.688Z,11.81
2018-05-01T01:49:20.719Z,11.78
2018-05-01T01:50:20.210Z,11.78
2018-05-01T01:51:20.529Z,11.85
2018-05-01T01:52:20.262Z,11.86
2018-05-01T01:53:21.479Z,11.84
2018-05-01T01:54:21.706Z,11.91
2018-05-01T01:55:21.577Z,11.86
2018-05-01T01:56:21.490Z,11.76
2018-05-01T01:57:21.697Z,11.79
2018-05-01T01:58:21.686Z,11.81
2018-05-01T01:59:22.007Z,11.84
2018-05-01T02:00:21.501Z,11.84
2018-05-01T02:01:22.080Z,11.86
2018-05-01T02:02:22.175Z,11.89
2018-05-01T02:03:22.163Z,11.81
2018-05-01T02:04:22.154Z,12
2018-05-01T02:05:22.480Z,11.86
2018-05-01T02:06:22.752Z,11.97
2018-05-01T02:07:22.851Z,11.86
2018-05-01T02:08:22.914Z,11.86
2018-05-01T02:09:22.839Z,11.86
2018-05-01T02:10:22.555Z,11.78
2018-05-01T02:11:23.110Z,11.85
2018-05-01T02:12:22.928Z,11.79
2018-05-01T02:13:22.918Z,11.79
2018-05-01T02:14:22.963Z,11.79
2018-05-01T02:15:23.004Z,11.7
2018-05-01T02:16:23.095Z,11.75
2018-05-01T02:17:23.167Z,11.81
2018-05-01T02:18:23.390Z,11.66
2018-05-01T02:19:23.483Z,11.7
2018-05-01T02:20:24.857Z,11.71
2018-05-01T02:21:23.856Z,11.76
2018-05-01T02:22:24.111Z,11.7
2018-05-01T02:23:24.301Z,11.75
2018-05-01T02:24:24.525Z,11.75
2018-05-01T02:25:25.284Z,11.82
2018-05-01T02:26:25.371Z,11.82
2018-05-01T02:27:25.364Z,11.88
2018-05-01T02:28:25.642Z,11.84
2018-05-01T02:29:25.944Z,11.82
2018-05-01T02:30:25.960Z,11.85
2018-05-01T02:31:26.624Z,11.88
2018-05-01T02:32:26.300Z,11.82
2018-05-01T02:33:26.785Z,11.68
2018-05-01T02:34:26.854Z,11.68
2018-05-01T02:35:26.885Z,11.76
2018-05-01T02:36:26.859Z,11.66
2018-05-01T02:37:27.050Z,11.67
2018-05-01T02:38:27.273Z,11.68
2018-05-01T02:39:27.734Z,11.66
2018-05-01T02:40:27.822Z,11.71
2018-05-01T02:41:27.504Z,11.66
2018-05-01T02:42:27.704Z,11.67
2018-05-01T02:43:27.933Z,11.64
2018-05-01T02:44:28.343Z,11.61
2018-05-01T02:45:28.324Z,11.6
2018-05-01T02:46:28.284Z,11.64
2018-05-01T02:47:28.301Z,11.64
2018-05-01T02:48:28.329Z,11.73
2018-05-01T02:49:28.173Z,11.71
2018-05-01T02:50:28.667Z,11.76
2018-05-01T02:51:28.668Z,11.79
2018-05-01T02:52:28.739Z,11.75
2018-05-01T02:53:28.489Z,11.82
2018-05-01T02:54:28.489Z,11.7
2018-05-01T02:55:28.960Z,11.71
2018-05-01T02:56:28.736Z,11.68
2018-05-01T02:57:29.017Z,11.75
2018-05-01T02:58:29.056Z,11.73
2018-05-01T02:59:29.247Z,11.63
2018-05-01T03:00:31.428Z,11.7
2018-05-01T03:01:31.393Z,11.68
2018-05-01T04:00:16.549Z,12.7
2018-05-01T04:00:57.371Z,12.73
2018-05-01T04:01:57.738Z,12.83
2018-05-01T04:02:57.715Z,12.76
2018-05-01T04:03:57.661Z,12.78
2018-05-01T04:04:57.710Z,12.71
2018-05-01T04:05:58.027Z,12.66
2018-05-01T04:06:58.228Z,12.83
2018-05-01T04:07:58.707Z,12.88
2018-05-01T04:08:58.859Z,12.83
2018-05-01T04:09:58.501Z,12.99
2018-05-01T04:10:58.513Z,12.99
2018-05-01T04:11:58.988Z,12.95
2018-05-01T04:12:58.620Z,12.92
2018-05-01T04:13:59.171Z,12.96
2018-05-01T04:14:58.948Z,13.11
2018-05-01T04:15:59.427Z,13.13
2018-05-01T04:16:59.488Z,13.2
2018-05-01T04:17:59.191Z,13.17
2018-05-01T04:18:59.686Z,13.2
2018-05-01T04:19:59.437Z,13.19
2018-05-01T04:20:59.716Z,13.19
2018-05-01T04:21:59.750Z,13.24
2018-05-01T04:22:59.496Z,13.31
2018-05-01T04:24:00.250Z,13.17
2018-05-01T04:25:00.459Z,13.19
2018-05-01T04:26:00.473Z,13.21
2018-05-01T04:27:00.500Z,13.17
2018-05-01T04:28:00.693Z,13.14
2018-05-01T04:29:00.724Z,13.16
2018-05-01T04:30:00.480Z,13.21
2018-05-01T04:31:00.531Z,13.19
2018-05-01T04:32:00.880Z,13.19
2018-05-01T04:33:00.565Z,13.17
2018-05-01T04:34:00.678Z,13.16
2018-05-01T04:35:00.696Z,13.21
2018-05-01T04:36:01.262Z,13.17
2018-05-01T04:37:01.285Z,13.14
2018-05-01T04:38:01.066Z,13.16
2018-05-01T04:39:01.795Z,13.17
2018-05-01T04:40:01.564Z,13.17
2018-05-01T04:41:01.867Z,13.13
2018-05-01T04:42:01.608Z,13.17
2018-05-01T04:43:01.929Z,13.2
2018-05-01T04:44:02.141Z,13.2
2018-05-01T04:45:02.088Z,13.24
2018-05-01T04:46:02.663Z,13.2
2018-05-01T04:47:02.400Z,13.39
2018-05-01T04:48:02.888Z,13.31
2018-05-01T04:49:03.114Z,13.36
2018-05-01T04:50:03.317Z,13.31
2018-05-01T04:51:03.328Z,13.32
2018-05-01T04:52:03.807Z,13.36
2018-05-01T04:53:04.086Z,13.37
2018-05-01T04:54:03.860Z,13.37
2018-05-01T04:55:04.838Z,13.35
2018-05-01T04:56:05.416Z,13.35
2018-05-01T04:57:04.793Z,13.21
2018-05-01T04:58:05.292Z,13.36
2018-05-01T04:59:05.393Z,13.24
2018-05-01T05:00:19.927Z,13.21
2018-05-01T05:01:04.832Z,13.28
2018-05-01T05:02:05.112Z,13.17
2018-05-01T05:03:05.508Z,13.19
2018-05-01T05:04:05.983Z,13.19
2018-05-01T05:05:05.650Z,13.19
2018-05-01T05:06:06.278Z,13.21
2018-05-01T05:07:06.101Z,13.2
2018-05-01T05:08:05.858Z,13.28
2018-05-01T05:09:06.275Z,13.29
2018-05-01T05:10:06.014Z,13.28
2018-05-01T05:11:06.453Z,13.21
2018-05-01T05:12:06.611Z,13.28
2018-05-01T05:13:06.876Z,13.32
2018-05-01T05:14:07.043Z,13.28
2018-05-01T05:15:07.454Z,13.27
2018-05-01T05:16:07.316Z,13.17
2018-05-01T05:17:07.921Z,13.21
2018-05-01T05:18:07.678Z,13.17
2018-05-01T05:19:07.902Z,13.24
2018-05-01T05:20:08.658Z,13.36
2018-05-01T05:21:09.376Z,13.31
2018-05-01T05:22:09.505Z,13.44
2018-05-01T05:23:09.540Z,13.5
2018-05-01T05:24:09.739Z,13.65
2018-05-01T05:25:09.738Z,13.54
2018-05-01T05:26:09.839Z,13.68
2018-05-01T05:27:09.543Z,13.78
2018-05-01T05:28:09.696Z,14.21
2018-05-01T05:29:10.032Z,14.49
2018-05-01T05:30:10.160Z,14.6
2018-05-01T05:31:11.321Z,14.69
2018-05-01T05:32:10.344Z,15.12
2018-05-01T05:33:10.999Z,15.4
2018-05-01T05:34:10.512Z,15.73
2018-05-01T05:35:11.060Z,16.1
2018-05-01T05:36:11.237Z,16.45
2018-05-01T05:37:11.273Z,16.76
2018-05-01T05:38:11.300Z,16.91
2018-05-01T05:39:11.043Z,17.18
2018-05-01T05:40:11.525Z,17.22
2018-05-01T05:41:11.529Z,17.36
2018-05-01T05:42:11.934Z,17.32
2018-05-01T05:43:11.976Z,17.2
2018-05-01T05:44:12.518Z,17.07
2018-05-01T05:45:12.523Z,16.99
2018-05-01T05:46:12.922Z,16.84
2018-05-01T05:47:13.324Z,16.85
2018-05-01T05:48:13.347Z,16.91
2018-05-01T05:49:13.113Z,17.1
2018-05-01T05:50:13.524Z,17.24
2018-05-01T05:51:13.939Z,17.47
2018-05-01T05:52:14.330Z,17.84
2018-05-01T05:53:13.835Z,18.5
2018-05-01T05:54:14.522Z,19.02
2018-05-01T05:55:14.542Z,19.43
2018-05-01T05:56:14.324Z,20
2018-05-01T05:57:14.594Z,20.2
2018-05-01T05:58:15.243Z,20.07
2018-05-01T05:59:15.140Z,20.35
2018-05-01T06:00:15.254Z,20.56
2018-05-01T06:01:15.295Z,20.81
2018-05-01T06:02:15.798Z,20.9
2018-05-01T06:03:15.829Z,20.58
2018-05-01T06:04:15.865Z,20.68
2018-05-01T06:05:16.388Z,20.63
2018-05-01T06:06:16.389Z,20.54
2018-05-01T06:07:16.556Z,20.38
2018-05-01T06:08:16.427Z,20.37
2018-05-01T06:09:16.198Z,20.51
2018-05-01T06:10:16.245Z,20.79
2018-05-01T06:11:16.966Z,21.25
2018-05-01T06:12:17.013Z,21.74
2018-05-01T06:13:17.555Z,22.27
2018-05-01T06:14:17.557Z,23.06
2018-05-01T06:15:17.740Z,24.15
2018-05-01T06:16:18.064Z,24.58
2018-05-01T06:17:17.827Z,24.85
2018-05-01T06:18:18.126Z,24.78
2018-05-01T06:19:18.152Z,25
2018-05-01T06:20:18.607Z,25.08
2018-05-01T06:21:18.638Z,24.87
2018-05-01T06:22:18.573Z,24.89
2018-05-01T06:23:19.147Z,25.05
2018-05-01T06:24:18.924Z,25.56
2018-05-01T06:25:19.216Z,25.37
2018-05-01T06:26:19.051Z,25.52
2018-05-01T06:27:19.804Z,25.89
2018-05-01T06:28:19.365Z,25.97
2018-05-01T06:29:20.083Z,26.27
2018-05-01T06:30:20.592Z,26.61
2018-05-01T06:31:20.334Z,26.9
2018-05-01T06:32:20.208Z,27.06
2018-05-01T06:33:21.057Z,27.45
2018-05-01T06:34:21.090Z,27.69
2018-05-01T06:35:21.120Z,27.83
2018-05-01T06:36:21.558Z,27.69
2018-05-01T06:37:21.775Z,27.31
2018-05-01T06:38:22.012Z,27.19
2018-05-01T06:39:22.774Z,27.59
2018-05-01T06:40:22.800Z,27.76
2018-05-01T06:41:22.549Z,27.71
2018-05-01T06:42:23.018Z,27.51
2018-05-01T06:43:22.794Z,27.34
2018-05-01T06:44:23.100Z,27.65
2018-05-01T06:45:23.322Z,27.57
2018-05-01T06:46:23.119Z,27.43
2018-05-01T06:47:23.622Z,26.2
2018-05-01T06:48:23.644Z,24.49
2018-05-01T06:49:24.114Z,23.62
2018-05-01T06:50:24.578Z,23.15
2018-05-01T06:51:24.520Z,23.84
2018-05-01T06:52:24.833Z,24.44
2018-05-01T06:53:25.056Z,24.42
2018-05-01T06:54:25.788Z,25
2018-05-01T06:55:26.275Z,25.78
2018-05-01T06:56:26.301Z,26.53
2018-05-01T06:57:26.075Z,26.5
2018-05-01T06:58:26.544Z,26.72
2018-05-01T06:59:26.333Z,26.34
2018-05-01T07:00:26.360Z,25.62
2018-05-01T07:01:26.580Z,24.8
2018-05-01T07:02:27.035Z,23.93
2018-05-01T07:03:27.087Z,23.59
2018-05-01T07:04:27.972Z,23.53
2018-05-01T07:05:27.576Z,23.79
2018-05-01T07:06:27.606Z,23.94
2018-05-01T07:07:27.384Z,23.64
2018-05-01T07:08:27.583Z,23.01
2018-05-01T07:09:28.058Z,22.3
2018-05-01T07:10:28.992Z,21.7
2018-05-01T07:11:28.730Z,21.23
2018-05-01T07:12:29.177Z,20.82
2018-05-01T07:13:29.357Z,20.42
2018-05-01T07:14:29.579Z,20.27
2018-05-01T07:15:29.861Z,20.15
2018-05-01T07:16:29.628Z,20.04
2018-05-01T07:17:30.424Z,19.9
2018-05-01T07:18:30.220Z,19.85
2018-05-01T07:19:29.995Z,19.83
2018-05-01T07:20:30.298Z,19.93
2018-05-01T07:21:30.319Z,20.07
2018-05-01T07:22:30.614Z,20.3
2018-05-01T07:23:30.737Z,20.58
2018-05-01T07:24:30.711Z,20.58
2018-05-01T07:25:31.004Z,20.58
2018-05-01T07:26:31.473Z,20.93
2018-05-01T07:27:31.746Z,21.3
2018-05-01T07:28:31.292Z,21.92
2018-05-01T07:29:32.484Z,22.31
2018-05-01T07:30:32.076Z,22.31
2018-05-01T07:31:32.347Z,22.14
2018-05-01T07:32:32.656Z,21.94
2018-05-01T07:33:32.689Z,22
2018-05-01T07:34:32.583Z,22.33
2018-05-01T07:35:33.035Z,22.48
2018-05-01T07:36:32.960Z,22.89
2018-05-01T07:37:32.996Z,23.29
2018-05-01T07:38:32.857Z,23.9
2018-05-01T07:39:32.972Z,24.11
2018-05-01T07:40:32.738Z,23.71
2018-05-01T07:41:33.738Z,24.09
2018-05-01T07:42:33.110Z,23.59
2018-05-01T07:43:33.322Z,23.32
2018-05-01T07:44:33.526Z,23.44
2018-05-01T07:45:33.990Z,23.44
2018-05-01T07:46:33.492Z,23.47
2018-05-01T07:47:34.606Z,23.71
2018-05-01T07:48:34.598Z,23.64
2018-05-01T07:49:34.800Z,23.6
2018-05-01T07:50:34.640Z,23.35
2018-05-01T07:51:34.907Z,22.92
2018-05-01T07:52:34.403Z,22.46
2018-05-01T07:53:34.689Z,21.82
2018-05-01T07:54:34.667Z,21.23
2018-05-01T07:55:34.671Z,20.42
2018-05-01T07:56:35.140Z,20.02
2018-05-01T07:57:35.182Z,20.19
2018-05-01T07:58:35.308Z,20.2
2018-05-01T07:59:35.358Z,20.96
2018-05-01T08:00:35.069Z,21.34
2018-05-01T08:01:35.167Z,21.52
2018-05-01T08:02:35.994Z,21.45
2018-05-01T08:03:35.827Z,22.04
2018-05-01T08:04:36.552Z,22.85
2018-05-01T08:05:36.465Z,23.81
2018-05-01T08:06:36.166Z,23.81
2018-05-01T08:07:36.370Z,22.88
2018-05-01T08:08:36.818Z,22.3
2018-05-01T08:09:37.234Z,22.29
2018-05-01T08:10:37.515Z,21.76
2018-05-01T08:11:37.049Z,21.4
2018-05-01T08:12:37.114Z,21.25
2018-05-01T08:13:37.783Z,21.25
2018-05-01T08:14:37.907Z,21.22
2018-05-01T08:15:38.598Z,21.67
2018-05-01T08:16:38.601Z,22.84
2018-05-01T08:17:38.849Z,23.47
2018-05-01T08:18:38.871Z,23.52
2018-05-01T08:19:38.719Z,23.62
2018-05-01T08:20:38.482Z,23.84
2018-05-01T08:21:39.242Z,24.36
2018-05-01T08:22:38.686Z,24.61
2018-05-01T08:23:39.058Z,25.32
2018-05-01T08:24:39.433Z,25.97
2018-05-01T08:25:39.482Z,26.5
2018-05-01T08:26:39.496Z,26.57
2018-05-01T08:27:39.556Z,26.19
2018-05-01T08:28:39.948Z,25.76
2018-05-01T08:29:40.343Z,25.51
2018-05-01T08:30:40.706Z,24.97
2018-05-01T08:31:40.528Z,24.3
2018-05-01T08:32:40.572Z,23.55
2018-05-01T08:33:40.636Z,22.97
2018-05-01T08:34:41.324Z,22.66
2018-05-01T08:35:41.308Z,22.3
2018-05-01T08:36:41.638Z,22.15
2018-05-01T08:37:41.676Z,22.05
2018-05-01T08:38:41.575Z,21.97
2018-05-01T08:39:41.553Z,21.97
2018-05-01T08:40:41.324Z,22.23
2018-05-01T08:41:41.544Z,22.76
2018-05-01T08:42:41.332Z,23.48
2018-05-01T08:43:41.836Z,24.09
2018-05-01T08:44:41.871Z,24.32
2018-05-01T08:45:41.852Z,23.9
2018-05-01T08:46:41.889Z,23.92
2018-05-01T08:47:41.669Z,24.36
2018-05-01T08:48:42.151Z,24.36
2018-05-01T08:49:42.007Z,24.87
2018-05-01T08:50:41.944Z,25.94
2018-05-01T08:51:42.157Z,26.59
2018-05-01T08:52:42.686Z,26.34
2018-05-01T08:53:43.135Z,25.66
2018-05-01T08:54:43.142Z,25.15
2018-05-01T08:55:43.114Z,25.27
2018-05-01T08:56:43.181Z,25.2
2018-05-01T08:57:43.654Z,24.59
2018-05-01T08:58:43.915Z,24.77
2018-05-01T08:59:44.171Z,24.54
2018-05-01T09:00:45.031Z,24.96
2018-05-01T09:01:44.924Z,25.02
2018-05-01T09:02:45.002Z,25.52
2018-05-01T09:03:45.284Z,26.64
2018-05-01T09:04:45.520Z,28.17
2018-05-01T09:05:45.562Z,29.23
2018-05-01T09:06:45.150Z,30.44
2018-05-01T09:07:45.818Z,31.19
2018-05-01T09:08:45.839Z,31.49
2018-05-01T09:09:45.908Z,32.01
2018-05-01T09:10:45.633Z,32.16
2018-05-01T09:11:45.680Z,31.52
2018-05-01T09:12:46.110Z,30.29
2018-05-01T09:13:46.141Z,30.45
2018-05-01T09:14:46.301Z,31.63
2018-05-01T09:15:46.322Z,32.45
2018-05-01T09:16:46.301Z,33.53
2018-05-01T09:17:47.196Z,34.22
2018-05-01T09:18:46.870Z,34.56
2018-05-01T09:19:46.924Z,35.15
2018-05-01T09:20:47.311Z,35.15
2018-05-01T09:21:46.836Z,34.24
2018-05-01T09:22:46.871Z,33.95
2018-05-01T09:23:47.271Z,33.74
2018-05-01T09:24:47.328Z,33.43
2018-05-01T09:25:47.625Z,33.17
2018-05-01T09:26:48.064Z,33.31
2018-05-01T09:27:48.231Z,33.61
2018-05-01T09:28:48.812Z,34.05
2018-05-01T09:29:48.738Z,34.22
2018-05-01T09:30:48.801Z,33.93
2018-05-01T09:31:48.546Z,34.14
2018-05-01T09:32:48.970Z,33.96
2018-05-01T09:33:49.134Z,34.24
2018-05-01T09:34:49.718Z,32.79
2018-05-01T09:35:49.901Z,31.22
2018-05-01T09:36:49.779Z,30.56
2018-05-01T09:37:50.439Z,29.75
2018-05-01T09:38:50.482Z,29.91
2018-05-01T09:39:50.240Z,30.13
2018-05-01T09:40:50.654Z,30.7
2018-05-01T09:41:50.742Z,30.93
2018-05-01T09:42:51.204Z,31.56
2018-05-01T09:43:51.298Z,31.47
2018-05-01T09:44:51.019Z,31.63
2018-05-01T09:45:51.694Z,30.93
2018-05-01T09:46:51.922Z,30.26
2018-05-01T09:47:51.778Z,30.21
2018-05-01T09:48:52.070Z,30.03
2018-05-01T09:49:52.072Z,30.31
2018-05-01T09:50:51.819Z,30.88
2018-05-01T09:51:51.967Z,30.78
2018-05-01T09:52:52.420Z,30.89
2018-05-01T09:53:52.536Z,30.59
2018-05-01T09:54:52.963Z,31.18
2018-05-01T09:55:53.027Z,31.56
2018-05-01T09:56:53.183Z,31.77
2018-05-01T09:57:53.077Z,32.16
2018-05-01T09:58:53.341Z,32.49
2018-05-01T09:59:53.512Z,32.67
2018-05-01T10:00:53.993Z,32.53
2018-05-01T10:01:54.090Z,32.61
2018-05-01T10:02:53.767Z,32.53
2018-05-01T10:03:53.827Z,33.21
2018-05-01T10:04:53.857Z,33.26
2018-05-01T10:05:54.596Z,33.43
2018-05-01T10:06:54.812Z,32.99
2018-05-01T10:07:54.566Z,33.02
2018-05-01T10:08:55.039Z,33.02
2018-05-01T10:09:55.102Z,33.2
2018-05-01T10:10:55.110Z,33.81
2018-05-01T10:11:55.017Z,33.71
2018-05-01T10:12:55.602Z,34.12
2018-05-01T10:13:55.667Z,34.06
2018-05-01T10:14:55.699Z,33.87
2018-05-01T10:15:55.451Z,33.75
2018-05-01T10:16:55.479Z,33.71
2018-05-01T10:17:55.533Z,33.06
2018-05-01T10:18:56.008Z,32.74
2018-05-01T10:19:56.056Z,31.9
2018-05-01T10:20:56.212Z,31.68
2018-05-01T10:21:56.173Z,31.77
2018-05-01T10:22:56.596Z,32.27
2018-05-01T10:23:56.645Z,32.42
2018-05-01T10:24:56.138Z,32.34
2018-05-01T10:25:56.936Z,32.46
2018-05-01T10:26:56.673Z,31.63
2018-05-01T10:27:56.986Z,30.75
2018-05-01T10:28:57.545Z,30.26
2018-05-01T10:29:57.589Z,30.39
2018-05-01T10:30:58.196Z,30.63
2018-05-01T10:31:58.158Z,31.15
2018-05-01T10:32:58.148Z,30.99
2018-05-01T10:33:57.999Z,31.26
2018-05-01T10:34:58.633Z,30.97
2018-05-01T10:35:58.275Z,31.04
2018-05-01T10:36:58.448Z,31.5
2018-05-01T10:37:58.918Z,31.08
2018-05-01T10:38:58.748Z,30.6
2018-05-01T10:39:58.740Z,30.63
2018-05-01T10:40:58.193Z,30.31
2018-05-01T10:41:58.222Z,30.7
2018-05-01T10:42:58.197Z,31
2018-05-01T10:43:58.520Z,31.3
2018-05-01T10:44:58.381Z,31.23
2018-05-01T10:45:58.052Z,31.28
2018-05-01T10:46:58.685Z,31.12
2018-05-01T10:47:58.953Z,31.06
2018-05-01T10:48:59.015Z,30.67
2018-05-01T10:49:59.307Z,30.62
2018-05-01T10:50:59.296Z,30.26
2018-05-01T10:51:59.339Z,29.92
2018-05-01T10:52:59.355Z,29.63
2018-05-01T10:53:59.727Z,29.21
2018-05-01T10:54:59.728Z,28.95
2018-05-01T10:55:59.766Z,29.15
2018-05-01T10:56:59.801Z,28.7
2018-05-01T10:58:00.026Z,29.01
2018-05-01T10:58:59.947Z,29.47
2018-05-01T11:00:00.580Z,29.6
2018-05-01T11:01:00.636Z,29.6
2018-05-01T11:02:00.299Z,29.67
2018-05-01T11:03:00.692Z,29.47
2018-05-01T11:04:00.828Z,29.29
2018-05-01T11:05:01.132Z,28.68
2018-05-01T11:06:01.117Z,28.43
2018-05-01T11:07:00.662Z,27.94
2018-05-01T11:08:00.731Z,27.94
2018-05-01T11:09:01.172Z,28.08
2018-05-01T11:10:01.590Z,28.24
2018-05-01T11:11:01.476Z,27.33
2018-05-01T11:12:01.862Z,27.55
2018-05-01T11:13:01.336Z,27.93
2018-05-01T11:14:01.823Z,27.57
2018-05-01T11:15:01.653Z,27.43
2018-05-01T11:16:02.085Z,27.05
2018-05-01T11:17:02.369Z,27
2018-05-01T11:18:02.519Z,26.76
2018-05-01T11:19:02.563Z,26.57
2018-05-01T11:20:02.572Z,26.3
2018-05-01T11:21:02.772Z,25.64
2018-05-01T11:22:03.170Z,24.93
2018-05-01T11:23:03.111Z,24.08
2018-05-01T11:24:03.404Z,23.16
2018-05-01T11:25:03.519Z,22.79
2018-05-01T11:26:03.036Z,22.12
2018-05-01T11:27:03.731Z,21.4
2018-05-01T11:28:03.382Z,21.18
2018-05-01T11:29:03.314Z,20.96
2018-05-01T11:30:03.955Z,20.85
2018-05-01T11:31:03.653Z,21.19
2018-05-01T11:32:03.815Z,21.51
2018-05-01T11:33:03.668Z,21.76
2018-05-01T11:34:03.984Z,21.86
2018-05-01T11:35:03.864Z,21.92
2018-05-01T11:36:03.916Z,21.92
2018-05-01T11:37:04.944Z,21.43
2018-05-01T11:38:04.059Z,20.94
2018-05-01T11:39:04.393Z,20.49
2018-05-01T11:40:04.726Z,20.02
2018-05-01T11:41:04.434Z,19.57
2018-05-01T11:42:04.956Z,19.16
2018-05-01T11:43:04.829Z,19.07
2018-05-01T11:44:04.841Z,18.96
2018-05-01T11:45:05.309Z,18.86
2018-05-01T11:46:05.313Z,18.63
2018-05-01T11:47:05.090Z,18.6
2018-05-01T11:48:05.627Z,18.61
2018-05-01T11:49:05.648Z,18.66
2018-05-01T11:50:05.071Z,18.57
2018-05-01T11:51:05.726Z,18.49
2018-05-01T11:52:05.716Z,18.59
2018-05-01T11:53:05.698Z,18.53
2018-05-01T11:54:06.165Z,18.42
2018-05-01T11:55:06.135Z,18.42
2018-05-01T11:56:06.358Z,18.49
2018-05-01T11:57:06.112Z,18.6
2018-05-01T11:58:06.288Z,18.54
2018-05-01T11:59:06.665Z,18.45
2018-05-01T13:00:05.800Z,17.05
2018-05-01T13:00:31.470Z,17.06
2018-05-01T13:01:30.704Z,17.09
2018-05-01T13:02:29.430Z,17.13
2018-05-01T13:03:29.343Z,17.1
2018-05-01T13:04:29.509Z,16.99
2018-05-01T13:05:30.210Z,17.03
2018-05-01T13:06:29.993Z,16.91
2018-05-01T13:07:30.633Z,16.94
2018-05-01T13:08:30.734Z,16.97
2018-05-01T13:09:31.149Z,16.99
2018-05-01T13:10:31.305Z,16.82
2018-05-01T13:11:31.436Z,16.84
2018-05-01T13:12:32.318Z,16.88
2018-05-01T13:13:31.825Z,16.9
2018-05-01T13:14:31.958Z,16.92
2018-05-01T13:15:31.996Z,16.94
2018-05-01T13:16:32.500Z,16.9
2018-05-01T13:17:31.977Z,16.84
2018-05-01T13:18:32.542Z,16.73
2018-05-01T13:19:32.672Z,16.88
2018-05-01T13:20:32.965Z,16.94
2018-05-01T13:21:33.423Z,17.03
2018-05-01T13:22:33.547Z,17.18
2018-05-01T13:23:33.499Z,17.06
2018-05-01T13:24:33.287Z,17.02
2018-05-01T13:25:33.571Z,16.94
2018-05-01T13:26:33.047Z,16.87
2018-05-01T13:27:33.645Z,16.8
2018-05-01T13:28:34.014Z,16.69
2018-05-01T13:29:33.784Z,16.66
2018-05-01T13:30:33.913Z,16.47
2018-05-01T13:31:34.315Z,16.48
2018-05-01T13:32:35.029Z,16.51
2018-05-01T13:33:34.401Z,16.39
2018-05-01T13:34:34.455Z,16.37
2018-05-01T13:35:34.345Z,16.34
2018-05-01T13:36:34.627Z,16.32
2018-05-01T13:37:35.174Z,16.34
2018-05-01T13:38:35.309Z,16.25
2018-05-01T13:39:35.099Z,16.29
2018-05-01T13:40:35.540Z,16.22
2018-05-01T13:41:35.673Z,16.17
2018-05-01T13:42:36.320Z,16.27
2018-05-01T13:43:36.367Z,16.17
2018-05-01T13:44:36.548Z,16.14
2018-05-01T13:45:36.625Z,16.21
2018-05-01T13:46:36.533Z,16.22
2018-05-01T13:47:37.423Z,16.22
2018-05-01T13:48:36.860Z,16.16
2018-05-01T13:49:37.516Z,16.25
2018-05-01T13:50:37.258Z,16.14
2018-05-01T13:51:38.013Z,16.14
2018-05-01T13:52:37.789Z,16.11
2018-05-01T13:53:38.100Z,16.21
2018-05-01T13:54:38.547Z,16.13
2018-05-01T13:55:38.291Z,16.1
2018-05-01T13:56:38.330Z,16.07
2018-05-01T13:57:38.617Z,16.1
2018-05-01T13:58:38.522Z,15.98
2018-05-01T13:59:38.692Z,15.98
2018-05-01T14:00:38.835Z,16.04
2018-05-01T14:01:38.748Z,15.95
2018-05-01T14:02:38.622Z,15.96
2018-05-01T14:03:38.769Z,15.98
2018-05-01T14:04:39.188Z,15.91
2018-05-01T14:05:38.597Z,15.89
2018-05-01T14:06:38.598Z,15.88
2018-05-01T14:07:39.167Z,15.86
2018-05-01T14:08:39.289Z,15.86
2018-05-01T14:09:39.548Z,15.86
2018-05-01T14:10:39.072Z,15.89
2018-05-01T14:11:39.463Z,15.81
2018-05-01T14:12:38.997Z,15.7
2018-05-01T14:13:39.526Z,15.67
2018-05-01T14:14:39.451Z,15.68
2018-05-01T14:15:39.863Z,15.68
2018-05-01T14:16:41.724Z,15.75
2018-05-01T14:17:41.892Z,15.7
2018-05-01T14:18:41.609Z,15.75
2018-05-01T14:19:42.214Z,15.78
2018-05-01T14:20:41.679Z,15.71
2018-05-01T14:21:41.979Z,15.63
2018-05-01T14:22:41.584Z,15.6
2018-05-01T14:23:42.353Z,15.58
2018-05-01T14:24:42.275Z,15.58
2018-05-01T14:25:42.810Z,15.56
2018-05-01T14:26:40.965Z,15.6
2018-05-01T14:27:41.040Z,15.62
2018-05-01T14:28:41.433Z,15.58
2018-05-01T14:29:41.592Z,15.52
2018-05-01T14:30:42.028Z,15.55
2018-05-01T14:31:42.889Z,15.6
2018-05-01T14:32:43.363Z,15.62
2018-05-01T14:33:42.519Z,15.7
2018-05-01T14:34:42.670Z,15.8
2018-05-01T14:35:43.331Z,15.84
2018-05-01T14:36:42.716Z,15.86
2018-05-01T14:37:42.737Z,15.83
2018-05-01T14:38:42.786Z,15.71
2018-05-01T14:39:42.562Z,15.73
2018-05-01T14:40:43.674Z,15.67
2018-05-01T14:41:43.075Z,15.58
2018-05-01T14:42:43.251Z,15.52
2018-05-01T14:43:43.007Z,15.43
2018-05-01T14:44:43.187Z,15.34
2018-05-01T14:45:43.000Z,15.34
2018-05-01T14:46:43.032Z,15.27
2018-05-01T14:47:43.025Z,15.35
2018-05-01T14:48:43.913Z,15.34
2018-05-01T14:49:43.472Z,15.37
2018-05-01T14:50:43.508Z,15.41
2018-05-01T14:51:43.560Z,15.44
2018-05-01T14:52:43.544Z,15.41
2018-05-01T14:53:43.989Z,15.51
2018-05-01T14:54:44.468Z,15.51